Aérodrome :
LOGIN :

S'inscrire | Disclaimer

   EN    FR    IT 

 










Légende :    VFR   VFR Marginal   IFR   IFR Intensif   IFR Très Intensif
Visi : 
Plafond : 
>= 8 km
>= 3000ft
5 à 8 km
1000 à 3000 ft
1500m à 5 km
500 à 1000 ft
800 à 1500m
200 à 500 ft
< 800m
< 200 ft
Symboles :   Orages  Brouillard  Fortes neiges  Fortes précipitations  Vent > 20 kt
SIGMETs :   Divers  Orages  Givrage  Turbulence  Onde Orograph.  Cendres Volcan.






- Altitude de l'aérodrome : 433 ft
- Code IATA : CCF


LFMK - Carcassonne

DERNIER METAR :
  • 262300Z AUTO 17003KT 6000 NSC 04/03 Q1022

METARs EXPIRÉS :
  • 262230Z AUTO 21002KT 5000 BR NSC 04/03 Q1022
  • 262200Z AUTO VRB02KT 7000 NSC 04/04 Q1022
  • 262130Z AUTO 17004KT 5000 BR NSC 05/04 Q1022
  • 262100Z AUTO 17003KT 9000 NSC 04/04 Q1022
  • 262030Z AUTO 00000KT CAVOK 05/04 Q1022

TAF AMD TAF LFMK
Valide du 26 à 15h jusqu'au 27 à 15h UTC


261516Z 2615/2715 29010KT 9999 BKN010 BKN050
BECMG 2615/2617 CAVOK
BECMG 2621/2623 VRB02KT
TEMPO 2623/2709 1500 BR OVC003
BECMG 2710/2712 09010KT BKN014



MET'MAP, la Météo Aéronautique d'un coup d'oeil ! - Copyright ORBIFLY Décembre 2007 - Disclaimer

ORBIFLY MET'MAP TEAM :

Programmation & Développement : Alexandra Zaïnal
Sur une idée originale de : Baudouin d'Aumeries
Assistance à la programmation : Marc-Olivier Méhu
Soutien technique & logistique : Manuel Goepfert

Contact : metmap@orbifly.com




SOURCES & CREDITS :

   NOAA